sensor_id;sensor_type;location;lat;lon;timestamp;P1;durP1;ratioP1;P2;durP2;ratioP2
51006;SDS011;37034;47.886;-3.904;2024-01-30T00:01:53;6.40;;;1.17;;
51006;SDS011;37034;47.886;-3.904;2024-01-30T00:04:18;9.60;;;0.83;;
51006;SDS011;37034;47.886;-3.904;2024-01-30T00:06:44;7.53;;;1.33;;
51006;SDS011;37034;47.886;-3.904;2024-01-30T00:09:10;9.52;;;0.88;;
51006;SDS011;37034;47.886;-3.904;2024-01-30T00:11:39;6.70;;;0.90;;
51006;SDS011;37034;47.886;-3.904;2024-01-30T00:14:05;8.48;;;1.00;;
51006;SDS011;37034;47.886;-3.904;2024-01-30T00:16:30;12.80;;;4.30;;
51006;SDS011;37034;47.886;-3.904;2024-01-30T00:18:56;6.95;;;1.50;;
51006;SDS011;37034;47.886;-3.904;2024-01-30T00:21:22;7.35;;;1.42;;
51006;SDS011;37034;47.886;-3.904;2024-01-30T00:23:48;8.02;;;1.40;;
51006;SDS011;37034;47.886;-3.904;2024-01-30T00:26:14;10.95;;;2.10;;
51006;SDS011;37034;47.886;-3.904;2024-01-30T00:28:41;13.80;;;5.55;;
51006;SDS011;37034;47.886;-3.904;2024-01-30T00:31:07;15.82;;;5.65;;
51006;SDS011;37034;47.886;-3.904;2024-01-30T00:35:59;12.30;;;3.55;;
51006;SDS011;37034;47.886;-3.904;2024-01-30T00:38:25;11.20;;;4.47;;
51006;SDS011;37034;47.886;-3.904;2024-01-30T00:40:50;10.27;;;4.27;;
51006;SDS011;37034;47.886;-3.904;2024-01-30T00:43:16;8.50;;;2.47;;
51006;SDS011;37034;47.886;-3.904;2024-01-30T00:45:45;7.70;;;2.20;;
51006;SDS011;37034;47.886;-3.904;2024-01-30T00:48:10;7.18;;;2.17;;
51006;SDS011;37034;47.886;-3.904;2024-01-30T00:50:36;6.63;;;1.43;;
51006;SDS011;37034;47.886;-3.904;2024-01-30T00:53:02;5.73;;;1.00;;
51006;SDS011;37034;47.886;-3.904;2024-01-30T00:55:27;14.70;;;1.67;;
51006;SDS011;37034;47.886;-3.904;2024-01-30T00:57:53;9.57;;;2.00;;
51006;SDS011;37034;47.886;-3.904;2024-01-30T01:00:19;4.63;;;1.23;;
51006;SDS011;37034;47.886;-3.904;2024-01-30T01:02:46;5.72;;;1.15;;
51006;SDS011;37034;47.886;-3.904;2024-01-30T01:05:11;6.32;;;1.00;;
51006;SDS011;37034;47.886;-3.904;2024-01-30T01:07:37;4.97;;;0.60;;
51006;SDS011;37034;47.886;-3.904;2024-01-30T01:10:03;4.47;;;1.07;;
51006;SDS011;37034;47.886;-3.904;2024-01-30T01:12:29;5.38;;;0.93;;
51006;SDS011;37034;47.886;-3.904;2024-01-30T01:14:54;4.67;;;0.67;;
51006;SDS011;37034;47.886;-3.904;2024-01-30T01:17:20;5.77;;;0.73;;
51006;SDS011;37034;47.886;-3.904;2024-01-30T01:19:46;5.30;;;1.37;;
51006;SDS011;37034;47.886;-3.904;2024-01-30T01:22:11;4.50;;;1.00;;
51006;SDS011;37034;47.886;-3.904;2024-01-30T01:24:37;5.53;;;1.10;;
51006;SDS011;37034;47.886;-3.904;2024-01-30T01:27:03;6.10;;;1.30;;
51006;SDS011;37034;47.886;-3.904;2024-01-30T01:29:28;6.22;;;2.00;;
51006;SDS011;37034;47.886;-3.904;2024-01-30T01:31:54;10.10;;;2.93;;
51006;SDS011;37034;47.886;-3.904;2024-01-30T01:34:21;14.65;;;5.72;;
51006;SDS011;37034;47.886;-3.904;2024-01-30T01:36:47;15.10;;;3.65;;
51006;SDS011;37034;47.886;-3.904;2024-01-30T01:39:12;9.53;;;1.80;;
51006;SDS011;37034;47.886;-3.904;2024-01-30T01:41:38;7.33;;;2.40;;
51006;SDS011;37034;47.886;-3.904;2024-01-30T01:44:03;20.30;;;8.00;;
51006;SDS011;37034;47.886;-3.904;2024-01-30T01:46:30;16.23;;;7.68;;
51006;SDS011;37034;47.886;-3.904;2024-01-30T01:48:58;10.65;;;3.65;;
51006;SDS011;37034;47.886;-3.904;2024-01-30T01:51:26;7.63;;;2.20;;
51006;SDS011;37034;47.886;-3.904;2024-01-30T01:53:57;12.05;;;4.90;;
51006;SDS011;37034;47.886;-3.904;2024-01-30T01:56:23;9.90;;;3.90;;
51006;SDS011;37034;47.886;-3.904;2024-01-30T01:58:49;11.75;;;2.03;;
51006;SDS011;37034;47.886;-3.904;2024-01-30T02:01:19;7.38;;;1.80;;
51006;SDS011;37034;47.886;-3.904;2024-01-30T02:03:46;6.68;;;0.95;;
51006;SDS011;37034;47.886;-3.904;2024-01-30T02:06:13;7.90;;;1.42;;
51006;SDS011;37034;47.886;-3.904;2024-01-30T02:08:40;8.45;;;1.40;;
51006;SDS011;37034;47.886;-3.904;2024-01-30T02:11:06;7.30;;;1.50;;
51006;SDS011;37034;47.886;-3.904;2024-01-30T02:13:31;8.73;;;1.17;;
51006;SDS011;37034;47.886;-3.904;2024-01-30T02:15:57;5.87;;;1.43;;
51006;SDS011;37034;47.886;-3.904;2024-01-30T02:18:23;6.77;;;1.43;;
51006;SDS011;37034;47.886;-3.904;2024-01-30T02:20:48;5.33;;;1.97;;
51006;SDS011;37034;47.886;-3.904;2024-01-30T02:23:16;12.95;;;1.42;;
51006;SDS011;37034;47.886;-3.904;2024-01-30T02:25:42;6.30;;;1.10;;
51006;SDS011;37034;47.886;-3.904;2024-01-30T02:28:11;6.00;;;2.03;;
51006;SDS011;37034;47.886;-3.904;2024-01-30T02:30:38;9.52;;;3.08;;
51006;SDS011;37034;47.886;-3.904;2024-01-30T02:33:04;7.10;;;2.50;;
51006;SDS011;37034;47.886;-3.904;2024-01-30T02:35:30;11.83;;;3.27;;
51006;SDS011;37034;47.886;-3.904;2024-01-30T02:37:56;11.83;;;1.73;;
51006;SDS011;37034;47.886;-3.904;2024-01-30T02:40:21;6.87;;;1.90;;
51006;SDS011;37034;47.886;-3.904;2024-01-30T02:42:47;13.03;;;4.10;;
51006;SDS011;37034;47.886;-3.904;2024-01-30T02:45:13;16.53;;;4.17;;
51006;SDS011;37034;47.886;-3.904;2024-01-30T02:47:38;11.35;;;3.22;;
51006;SDS011;37034;47.886;-3.904;2024-01-30T02:50:05;13.10;;;3.45;;
51006;SDS011;37034;47.886;-3.904;2024-01-30T02:52:31;21.05;;;7.68;;
51006;SDS011;37034;47.886;-3.904;2024-01-30T02:54:57;14.77;;;6.47;;
51006;SDS011;37034;47.886;-3.904;2024-01-30T02:57:23;15.77;;;5.93;;
51006;SDS011;37034;47.886;-3.904;2024-01-30T02:59:49;15.43;;;5.47;;
51006;SDS011;37034;47.886;-3.904;2024-01-30T03:02:14;12.70;;;3.87;;
51006;SDS011;37034;47.886;-3.904;2024-01-30T03:04:43;13.30;;;3.97;;
51006;SDS011;37034;47.886;-3.904;2024-01-30T03:07:09;10.60;;;3.50;;
51006;SDS011;37034;47.886;-3.904;2024-01-30T03:09:36;9.57;;;2.58;;
51006;SDS011;37034;47.886;-3.904;2024-01-30T03:14:27;6.30;;;1.98;;
51006;SDS011;37034;47.886;-3.904;2024-01-30T03:16:54;8.30;;;1.40;;
51006;SDS011;37034;47.886;-3.904;2024-01-30T03:19:20;7.27;;;1.50;;
51006;SDS011;37034;47.886;-3.904;2024-01-30T03:21:46;8.30;;;1.23;;
51006;SDS011;37034;47.886;-3.904;2024-01-30T03:24:11;3.73;;;0.63;;
51006;SDS011;37034;47.886;-3.904;2024-01-30T03:26:37;5.97;;;1.00;;
51006;SDS011;37034;47.886;-3.904;2024-01-30T03:29:03;4.00;;;1.13;;
51006;SDS011;37034;47.886;-3.904;2024-01-30T03:31:28;4.50;;;0.90;;
51006;SDS011;37034;47.886;-3.904;2024-01-30T03:33:54;5.30;;;0.67;;
51006;SDS011;37034;47.886;-3.904;2024-01-30T03:36:20;5.57;;;1.40;;
51006;SDS011;37034;47.886;-3.904;2024-01-30T03:38:45;9.27;;;1.30;;
51006;SDS011;37034;47.886;-3.904;2024-01-30T03:41:11;4.87;;;1.30;;
51006;SDS011;37034;47.886;-3.904;2024-01-30T03:43:36;4.33;;;0.87;;
51006;SDS011;37034;47.886;-3.904;2024-01-30T03:46:02;9.13;;;2.10;;
51006;SDS011;37034;47.886;-3.904;2024-01-30T03:48:29;10.50;;;1.30;;
51006;SDS011;37034;47.886;-3.904;2024-01-30T03:50:54;3.47;;;1.10;;
51006;SDS011;37034;47.886;-3.904;2024-01-30T03:53:22;9.07;;;1.17;;
51006;SDS011;37034;47.886;-3.904;2024-01-30T03:55:47;4.85;;;1.23;;
51006;SDS011;37034;47.886;-3.904;2024-01-30T03:58:13;8.43;;;1.77;;
51006;SDS011;37034;47.886;-3.904;2024-01-30T04:00:39;11.57;;;1.70;;
51006;SDS011;37034;47.886;-3.904;2024-01-30T04:03:05;6.13;;;1.48;;
51006;SDS011;37034;47.886;-3.904;2024-01-30T04:05:31;6.83;;;2.37;;
51006;SDS011;37034;47.886;-3.904;2024-01-30T04:07:57;9.27;;;2.27;;
51006;SDS011;37034;47.886;-3.904;2024-01-30T04:10:23;7.73;;;1.60;;
51006;SDS011;37034;47.886;-3.904;2024-01-30T04:15:15;8.35;;;2.20;;
51006;SDS011;37034;47.886;-3.904;2024-01-30T04:17:41;7.40;;;1.58;;
51006;SDS011;37034;47.886;-3.904;2024-01-30T04:20:07;3.50;;;1.07;;
51006;SDS011;37034;47.886;-3.904;2024-01-30T04:22:33;7.80;;;1.55;;
51006;SDS011;37034;47.886;-3.904;2024-01-30T04:24:59;9.10;;;1.73;;
51006;SDS011;37034;47.886;-3.904;2024-01-30T04:27:24;6.53;;;1.37;;
51006;SDS011;37034;47.886;-3.904;2024-01-30T04:29:50;9.67;;;1.40;;
51006;SDS011;37034;47.886;-3.904;2024-01-30T04:32:16;14.83;;;2.37;;
51006;SDS011;37034;47.886;-3.904;2024-01-30T04:34:41;9.38;;;1.60;;
51006;SDS011;37034;47.886;-3.904;2024-01-30T04:37:07;11.70;;;1.87;;
51006;SDS011;37034;47.886;-3.904;2024-01-30T04:39:33;9.83;;;2.07;;
51006;SDS011;37034;47.886;-3.904;2024-01-30T04:41:59;9.53;;;1.47;;
51006;SDS011;37034;47.886;-3.904;2024-01-30T04:44:24;4.30;;;0.87;;
51006;SDS011;37034;47.886;-3.904;2024-01-30T04:46:50;12.03;;;1.60;;
51006;SDS011;37034;47.886;-3.904;2024-01-30T04:49:15;8.57;;;1.70;;
51006;SDS011;37034;47.886;-3.904;2024-01-30T04:51:41;5.20;;;1.67;;
51006;SDS011;37034;47.886;-3.904;2024-01-30T04:54:07;13.83;;;1.77;;
51006;SDS011;37034;47.886;-3.904;2024-01-30T04:56:32;12.27;;;1.90;;
51006;SDS011;37034;47.886;-3.904;2024-01-30T04:58:59;6.10;;;1.67;;
51006;SDS011;37034;47.886;-3.904;2024-01-30T05:01:25;12.05;;;1.90;;
51006;SDS011;37034;47.886;-3.904;2024-01-30T05:03:51;6.93;;;1.63;;
51006;SDS011;37034;47.886;-3.904;2024-01-30T05:06:26;12.63;;;2.70;;
51006;SDS011;37034;47.886;-3.904;2024-01-30T05:08:52;8.88;;;2.55;;
51006;SDS011;37034;47.886;-3.904;2024-01-30T05:11:18;10.55;;;2.10;;
51006;SDS011;37034;47.886;-3.904;2024-01-30T05:13:44;9.43;;;1.20;;
51006;SDS011;37034;47.886;-3.904;2024-01-30T05:16:09;8.47;;;0.90;;
51006;SDS011;37034;47.886;-3.904;2024-01-30T05:18:35;11.10;;;1.50;;
51006;SDS011;37034;47.886;-3.904;2024-01-30T05:21:01;5.70;;;1.00;;
51006;SDS011;37034;47.886;-3.904;2024-01-30T05:25:53;6.78;;;1.38;;
51006;SDS011;37034;47.886;-3.904;2024-01-30T05:28:18;6.77;;;1.37;;
51006;SDS011;37034;47.886;-3.904;2024-01-30T05:30:44;9.23;;;2.57;;
51006;SDS011;37034;47.886;-3.904;2024-01-30T05:33:10;12.90;;;2.87;;
51006;SDS011;37034;47.886;-3.904;2024-01-30T05:35:37;10.63;;;4.90;;
51006;SDS011;37034;47.886;-3.904;2024-01-30T05:38:03;7.65;;;3.75;;
51006;SDS011;37034;47.886;-3.904;2024-01-30T05:40:29;21.75;;;8.80;;
51006;SDS011;37034;47.886;-3.904;2024-01-30T05:42:57;25.65;;;10.85;;
51006;SDS011;37034;47.886;-3.904;2024-01-30T05:45:25;16.08;;;7.32;;
51006;SDS011;37034;47.886;-3.904;2024-01-30T05:47:52;12.93;;;5.38;;
51006;SDS011;37034;47.886;-3.904;2024-01-30T05:50:17;13.13;;;5.82;;
51006;SDS011;37034;47.886;-3.904;2024-01-30T05:52:44;12.95;;;5.13;;
51006;SDS011;37034;47.886;-3.904;2024-01-30T05:55:09;15.30;;;5.37;;
51006;SDS011;37034;47.886;-3.904;2024-01-30T05:57:37;14.55;;;6.55;;
51006;SDS011;37034;47.886;-3.904;2024-01-30T06:00:03;20.15;;;6.72;;
51006;SDS011;37034;47.886;-3.904;2024-01-30T06:02:30;12.85;;;5.28;;
51006;SDS011;37034;47.886;-3.904;2024-01-30T06:04:56;11.85;;;4.90;;
51006;SDS011;37034;47.886;-3.904;2024-01-30T06:07:21;10.43;;;4.17;;
51006;SDS011;37034;47.886;-3.904;2024-01-30T06:09:47;7.57;;;4.00;;
51006;SDS011;37034;47.886;-3.904;2024-01-30T06:12:13;8.50;;;4.00;;
51006;SDS011;37034;47.886;-3.904;2024-01-30T06:14:38;6.57;;;3.43;;
51006;SDS011;37034;47.886;-3.904;2024-01-30T06:17:04;8.35;;;3.90;;
51006;SDS011;37034;47.886;-3.904;2024-01-30T06:19:30;10.13;;;3.77;;
51006;SDS011;37034;47.886;-3.904;2024-01-30T06:21:59;7.10;;;2.57;;
51006;SDS011;37034;47.886;-3.904;2024-01-30T06:24:25;8.52;;;2.97;;
51006;SDS011;37034;47.886;-3.904;2024-01-30T06:26:50;6.90;;;2.80;;
51006;SDS011;37034;47.886;-3.904;2024-01-30T06:29:16;5.50;;;2.20;;
51006;SDS011;37034;47.886;-3.904;2024-01-30T06:31:42;11.67;;;2.83;;
51006;SDS011;37034;47.886;-3.904;2024-01-30T06:34:08;8.05;;;2.25;;
51006;SDS011;37034;47.886;-3.904;2024-01-30T06:36:34;7.90;;;2.25;;
51006;SDS011;37034;47.886;-3.904;2024-01-30T06:39:01;7.17;;;2.70;;
51006;SDS011;37034;47.886;-3.904;2024-01-30T06:41:27;8.55;;;2.00;;
51006;SDS011;37034;47.886;-3.904;2024-01-30T06:43:53;12.43;;;2.93;;
51006;SDS011;37034;47.886;-3.904;2024-01-30T06:46:18;12.10;;;4.30;;
51006;SDS011;37034;47.886;-3.904;2024-01-30T06:48:44;18.80;;;5.77;;
51006;SDS011;37034;47.886;-3.904;2024-01-30T06:51:10;19.07;;;7.17;;
51006;SDS011;37034;47.886;-3.904;2024-01-30T06:53:37;16.60;;;4.82;;
51006;SDS011;37034;47.886;-3.904;2024-01-30T06:56:03;16.47;;;5.93;;
51006;SDS011;37034;47.886;-3.904;2024-01-30T06:58:28;16.10;;;4.40;;
51006;SDS011;37034;47.886;-3.904;2024-01-30T07:00:54;27.30;;;8.03;;
51006;SDS011;37034;47.886;-3.904;2024-01-30T07:03:20;28.20;;;8.25;;
51006;SDS011;37034;47.886;-3.904;2024-01-30T07:05:46;23.52;;;6.60;;
51006;SDS011;37034;47.886;-3.904;2024-01-30T07:08:12;19.58;;;4.50;;
51006;SDS011;37034;47.886;-3.904;2024-01-30T07:10:38;15.63;;;3.07;;
51006;SDS011;37034;47.886;-3.904;2024-01-30T07:13:04;12.03;;;2.90;;
51006;SDS011;37034;47.886;-3.904;2024-01-30T07:15:30;8.50;;;2.15;;
51006;SDS011;37034;47.886;-3.904;2024-01-30T07:17:56;6.88;;;1.75;;
51006;SDS011;37034;47.886;-3.904;2024-01-30T07:20:22;11.40;;;3.50;;
51006;SDS011;37034;47.886;-3.904;2024-01-30T07:22:48;10.68;;;3.22;;
51006;SDS011;37034;47.886;-3.904;2024-01-30T07:25:14;10.37;;;3.83;;
51006;SDS011;37034;47.886;-3.904;2024-01-30T07:27:41;16.17;;;3.70;;
51006;SDS011;37034;47.886;-3.904;2024-01-30T07:30:07;12.97;;;4.30;;
51006;SDS011;37034;47.886;-3.904;2024-01-30T07:32:33;12.17;;;4.40;;
51006;SDS011;37034;47.886;-3.904;2024-01-30T07:34:58;15.90;;;3.57;;
51006;SDS011;37034;47.886;-3.904;2024-01-30T07:37:24;10.77;;;3.27;;
51006;SDS011;37034;47.886;-3.904;2024-01-30T07:39:50;8.13;;;2.40;;
51006;SDS011;37034;47.886;-3.904;2024-01-30T07:42:15;12.10;;;4.13;;
51006;SDS011;37034;47.886;-3.904;2024-01-30T07:44:42;6.32;;;2.50;;
51006;SDS011;37034;47.886;-3.904;2024-01-30T07:47:08;10.33;;;2.67;;
51006;SDS011;37034;47.886;-3.904;2024-01-30T07:49:34;12.47;;;2.80;;
51006;SDS011;37034;47.886;-3.904;2024-01-30T07:51:59;9.23;;;2.42;;
51006;SDS011;37034;47.886;-3.904;2024-01-30T07:54:25;11.27;;;2.03;;
51006;SDS011;37034;47.886;-3.904;2024-01-30T07:56:51;10.05;;;3.35;;
51006;SDS011;37034;47.886;-3.904;2024-01-30T07:59:17;10.03;;;2.47;;
51006;SDS011;37034;47.886;-3.904;2024-01-30T08:01:44;8.57;;;2.20;;
51006;SDS011;37034;47.886;-3.904;2024-01-30T08:04:10;8.60;;;2.77;;
51006;SDS011;37034;47.886;-3.904;2024-01-30T08:06:35;7.53;;;2.67;;
51006;SDS011;37034;47.886;-3.904;2024-01-30T08:09:01;7.97;;;2.40;;
51006;SDS011;37034;47.886;-3.904;2024-01-30T08:11:27;6.50;;;2.58;;
51006;SDS011;37034;47.886;-3.904;2024-01-30T08:13:54;6.70;;;2.40;;
51006;SDS011;37034;47.886;-3.904;2024-01-30T08:16:20;5.90;;;2.93;;
51006;SDS011;37034;47.886;-3.904;2024-01-30T08:18:46;4.83;;;2.03;;
51006;SDS011;37034;47.886;-3.904;2024-01-30T08:21:11;9.70;;;3.40;;
51006;SDS011;37034;47.886;-3.904;2024-01-30T08:23:40;13.53;;;4.70;;
51006;SDS011;37034;47.886;-3.904;2024-01-30T08:26:06;28.55;;;12.73;;
51006;SDS011;37034;47.886;-3.904;2024-01-30T08:28:32;13.80;;;7.50;;
51006;SDS011;37034;47.886;-3.904;2024-01-30T08:30:58;13.88;;;7.80;;
51006;SDS011;37034;47.886;-3.904;2024-01-30T08:33:24;13.93;;;6.35;;
51006;SDS011;37034;47.886;-3.904;2024-01-30T08:35:49;8.90;;;3.70;;
51006;SDS011;37034;47.886;-3.904;2024-01-30T08:38:15;7.07;;;2.00;;
51006;SDS011;37034;47.886;-3.904;2024-01-30T08:40:41;6.13;;;1.90;;
51006;SDS011;37034;47.886;-3.904;2024-01-30T08:43:06;9.77;;;2.20;;
51006;SDS011;37034;47.886;-3.904;2024-01-30T08:45:34;5.32;;;2.08;;
51006;SDS011;37034;47.886;-3.904;2024-01-30T08:48:00;8.30;;;3.40;;
51006;SDS011;37034;47.886;-3.904;2024-01-30T08:50:25;7.90;;;3.13;;
51006;SDS011;37034;47.886;-3.904;2024-01-30T08:52:51;7.87;;;4.13;;
51006;SDS011;37034;47.886;-3.904;2024-01-30T08:55:16;11.70;;;5.53;;
51006;SDS011;37034;47.886;-3.904;2024-01-30T08:57:42;19.67;;;8.87;;
51006;SDS011;37034;47.886;-3.904;2024-01-30T09:00:08;35.37;;;16.87;;
51006;SDS011;37034;47.886;-3.904;2024-01-30T09:02:35;68.93;;;30.60;;
51006;SDS011;37034;47.886;-3.904;2024-01-30T09:05:00;26.07;;;13.50;;
51006;SDS011;37034;47.886;-3.904;2024-01-30T09:07:26;41.37;;;19.43;;
51006;SDS011;37034;47.886;-3.904;2024-01-30T09:09:52;50.10;;;22.27;;
51006;SDS011;37034;47.886;-3.904;2024-01-30T09:12:18;41.27;;;19.13;;
51006;SDS011;37034;47.886;-3.904;2024-01-30T09:14:43;37.23;;;16.77;;
51006;SDS011;37034;47.886;-3.904;2024-01-30T09:17:09;14.27;;;7.20;;
51006;SDS011;37034;47.886;-3.904;2024-01-30T09:19:35;5.50;;;1.98;;
51006;SDS011;37034;47.886;-3.904;2024-01-30T09:22:01;8.47;;;1.67;;
51006;SDS011;37034;47.886;-3.904;2024-01-30T09:24:26;14.90;;;7.13;;
51006;SDS011;37034;47.886;-3.904;2024-01-30T09:26:52;20.98;;;7.40;;
51006;SDS011;37034;47.886;-3.904;2024-01-30T09:29:19;9.40;;;3.65;;
51006;SDS011;37034;47.886;-3.904;2024-01-30T09:31:45;8.57;;;3.70;;
51006;SDS011;37034;47.886;-3.904;2024-01-30T09:34:10;8.88;;;3.15;;
51006;SDS011;37034;47.886;-3.904;2024-01-30T09:36:36;7.25;;;2.40;;
51006;SDS011;37034;47.886;-3.904;2024-01-30T09:39:02;7.30;;;1.50;;
51006;SDS011;37034;47.886;-3.904;2024-01-30T09:41:29;5.72;;;1.35;;
51006;SDS011;37034;47.886;-3.904;2024-01-30T09:43:58;7.13;;;1.33;;
51006;SDS011;37034;47.886;-3.904;2024-01-30T09:46:26;8.02;;;1.65;;
51006;SDS011;37034;47.886;-3.904;2024-01-30T09:48:53;7.65;;;1.73;;
51006;SDS011;37034;47.886;-3.904;2024-01-30T09:51:20;5.78;;;1.65;;
51006;SDS011;37034;47.886;-3.904;2024-01-30T09:53:47;3.78;;;1.42;;
51006;SDS011;37034;47.886;-3.904;2024-01-30T09:56:14;5.05;;;1.70;;
51006;SDS011;37034;47.886;-3.904;2024-01-30T09:58:39;4.33;;;1.60;;
51006;SDS011;37034;47.886;-3.904;2024-01-30T10:01:05;7.93;;;1.70;;
51006;SDS011;37034;47.886;-3.904;2024-01-30T10:03:31;5.53;;;1.33;;
51006;SDS011;37034;47.886;-3.904;2024-01-30T10:05:58;7.35;;;1.85;;
51006;SDS011;37034;47.886;-3.904;2024-01-30T10:08:26;10.73;;;2.20;;
51006;SDS011;37034;47.886;-3.904;2024-01-30T10:10:51;8.38;;;2.38;;
51006;SDS011;37034;47.886;-3.904;2024-01-30T10:13:17;12.57;;;2.20;;
51006;SDS011;37034;47.886;-3.904;2024-01-30T10:15:44;10.18;;;1.58;;
51006;SDS011;37034;47.886;-3.904;2024-01-30T10:18:10;8.25;;;2.88;;
51006;SDS011;37034;47.886;-3.904;2024-01-30T10:20:36;8.15;;;2.67;;
51006;SDS011;37034;47.886;-3.904;2024-01-30T10:23:02;9.70;;;3.25;;
51006;SDS011;37034;47.886;-3.904;2024-01-30T10:25:28;11.43;;;3.38;;
51006;SDS011;37034;47.886;-3.904;2024-01-30T10:27:55;12.68;;;3.70;;
51006;SDS011;37034;47.886;-3.904;2024-01-30T10:30:22;12.88;;;3.58;;
51006;SDS011;37034;47.886;-3.904;2024-01-30T10:32:48;11.18;;;4.10;;
51006;SDS011;37034;47.886;-3.904;2024-01-30T10:35:14;14.80;;;3.03;;
51006;SDS011;37034;47.886;-3.904;2024-01-30T10:37:41;9.57;;;1.83;;
51006;SDS011;37034;47.886;-3.904;2024-01-30T10:40:08;8.52;;;2.10;;
51006;SDS011;37034;47.886;-3.904;2024-01-30T10:42:37;15.15;;;1.90;;
51006;SDS011;37034;47.886;-3.904;2024-01-30T10:45:13;8.85;;;1.70;;
51006;SDS011;37034;47.886;-3.904;2024-01-30T10:47:42;9.05;;;1.65;;
51006;SDS011;37034;47.886;-3.904;2024-01-30T10:50:13;8.15;;;1.80;;
51006;SDS011;37034;47.886;-3.904;2024-01-30T10:52:39;5.68;;;1.38;;
51006;SDS011;37034;47.886;-3.904;2024-01-30T10:55:07;8.65;;;1.00;;
51006;SDS011;37034;47.886;-3.904;2024-01-30T10:57:36;6.43;;;1.02;;
51006;SDS011;37034;47.886;-3.904;2024-01-30T11:00:09;4.97;;;0.93;;
51006;SDS011;37034;47.886;-3.904;2024-01-30T11:02:40;6.28;;;1.55;;
51006;SDS011;37034;47.886;-3.904;2024-01-30T11:05:09;12.13;;;2.25;;
51006;SDS011;37034;47.886;-3.904;2024-01-30T11:07:35;9.18;;;2.47;;
51006;SDS011;37034;47.886;-3.904;2024-01-30T11:10:03;14.80;;;3.10;;
51006;SDS011;37034;47.886;-3.904;2024-01-30T11:12:33;7.43;;;1.90;;
51006;SDS011;37034;47.886;-3.904;2024-01-30T11:15:08;7.43;;;2.17;;
51006;SDS011;37034;47.886;-3.904;2024-01-30T11:17:45;7.85;;;2.00;;
51006;SDS011;37034;47.886;-3.904;2024-01-30T11:22:47;9.30;;;1.88;;
51006;SDS011;37034;47.886;-3.904;2024-01-30T11:25:16;6.63;;;1.45;;
51006;SDS011;37034;47.886;-3.904;2024-01-30T11:27:44;8.07;;;1.02;;
51006;SDS011;37034;47.886;-3.904;2024-01-30T11:30:11;7.28;;;1.38;;
51006;SDS011;37034;47.886;-3.904;2024-01-30T11:32:46;5.25;;;1.10;;
51006;SDS011;37034;47.886;-3.904;2024-01-30T11:35:37;6.55;;;1.27;;
51006;SDS011;37034;47.886;-3.904;2024-01-30T11:38:05;9.77;;;1.20;;
51006;SDS011;37034;47.886;-3.904;2024-01-30T11:40:32;8.20;;;1.00;;
51006;SDS011;37034;47.886;-3.904;2024-01-30T11:42:59;5.55;;;1.42;;
51006;SDS011;37034;47.886;-3.904;2024-01-30T11:45:26;6.70;;;2.17;;
51006;SDS011;37034;47.886;-3.904;2024-01-30T11:47:52;4.55;;;0.73;;
51006;SDS011;37034;47.886;-3.904;2024-01-30T11:50:18;6.22;;;0.70;;
51006;SDS011;37034;47.886;-3.904;2024-01-30T11:52:44;4.70;;;0.93;;
51006;SDS011;37034;47.886;-3.904;2024-01-30T11:55:10;5.10;;;1.30;;
51006;SDS011;37034;47.886;-3.904;2024-01-30T11:57:36;5.20;;;1.40;;
51006;SDS011;37034;47.886;-3.904;2024-01-30T12:00:05;12.27;;;3.97;;
51006;SDS011;37034;47.886;-3.904;2024-01-30T12:02:35;10.02;;;3.58;;
51006;SDS011;37034;47.886;-3.904;2024-01-30T12:05:05;8.88;;;1.42;;
51006;SDS011;37034;47.886;-3.904;2024-01-30T12:07:31;6.30;;;1.73;;
51006;SDS011;37034;47.886;-3.904;2024-01-30T12:09:57;7.15;;;1.65;;
51006;SDS011;37034;47.886;-3.904;2024-01-30T12:12:24;10.90;;;3.65;;
51006;SDS011;37034;47.886;-3.904;2024-01-30T12:14:53;8.20;;;2.40;;
51006;SDS011;37034;47.886;-3.904;2024-01-30T12:17:29;8.68;;;2.35;;
51006;SDS011;37034;47.886;-3.904;2024-01-30T12:20:05;9.52;;;2.15;;
51006;SDS011;37034;47.886;-3.904;2024-01-30T12:22:36;7.13;;;1.85;;
51006;SDS011;37034;47.886;-3.904;2024-01-30T12:25:16;7.65;;;1.60;;
51006;SDS011;37034;47.886;-3.904;2024-01-30T12:27:43;7.90;;;1.30;;
51006;SDS011;37034;47.886;-3.904;2024-01-30T12:30:11;9.27;;;1.35;;
51006;SDS011;37034;47.886;-3.904;2024-01-30T12:32:44;7.88;;;2.05;;
51006;SDS011;37034;47.886;-3.904;2024-01-30T12:37:38;11.13;;;1.60;;
51006;SDS011;37034;47.886;-3.904;2024-01-30T12:40:04;25.27;;;7.70;;
51006;SDS011;37034;47.886;-3.904;2024-01-30T12:42:31;12.88;;;2.80;;
51006;SDS011;37034;47.886;-3.904;2024-01-30T12:45:00;7.35;;;2.50;;
51006;SDS011;37034;47.886;-3.904;2024-01-30T12:47:27;8.02;;;1.80;;
51006;SDS011;37034;47.886;-3.904;2024-01-30T12:49:53;9.37;;;2.17;;
51006;SDS011;37034;47.886;-3.904;2024-01-30T12:52:19;7.40;;;1.90;;
51006;SDS011;37034;47.886;-3.904;2024-01-30T12:54:48;5.18;;;1.02;;
51006;SDS011;37034;47.886;-3.904;2024-01-30T12:57:14;5.70;;;1.38;;
51006;SDS011;37034;47.886;-3.904;2024-01-30T12:59:41;8.63;;;2.85;;
51006;SDS011;37034;47.886;-3.904;2024-01-30T13:02:07;8.73;;;2.70;;
51006;SDS011;37034;47.886;-3.904;2024-01-30T13:04:33;11.13;;;1.92;;
51006;SDS011;37034;47.886;-3.904;2024-01-30T13:06:59;7.93;;;1.60;;
51006;SDS011;37034;47.886;-3.904;2024-01-30T13:11:51;5.40;;;1.77;;
51006;SDS011;37034;47.886;-3.904;2024-01-30T13:14:18;5.95;;;1.60;;
51006;SDS011;37034;47.886;-3.904;2024-01-30T13:16:44;10.10;;;2.95;;
51006;SDS011;37034;47.886;-3.904;2024-01-30T13:19:10;7.72;;;2.03;;
51006;SDS011;37034;47.886;-3.904;2024-01-30T13:21:36;14.87;;;2.80;;
51006;SDS011;37034;47.886;-3.904;2024-01-30T13:24:02;7.78;;;0.93;;
51006;SDS011;37034;47.886;-3.904;2024-01-30T13:26:28;10.23;;;2.45;;
51006;SDS011;37034;47.886;-3.904;2024-01-30T13:28:55;12.27;;;3.47;;
51006;SDS011;37034;47.886;-3.904;2024-01-30T13:31:21;6.13;;;1.80;;
51006;SDS011;37034;47.886;-3.904;2024-01-30T13:33:47;11.63;;;2.70;;
51006;SDS011;37034;47.886;-3.904;2024-01-30T13:36:13;8.38;;;2.63;;
51006;SDS011;37034;47.886;-3.904;2024-01-30T13:38:39;8.93;;;2.17;;
51006;SDS011;37034;47.886;-3.904;2024-01-30T13:41:05;9.18;;;1.52;;
51006;SDS011;37034;47.886;-3.904;2024-01-30T13:43:31;13.70;;;5.03;;
51006;SDS011;37034;47.886;-3.904;2024-01-30T13:45:56;12.23;;;3.40;;
51006;SDS011;37034;47.886;-3.904;2024-01-30T13:48:22;9.97;;;3.20;;
51006;SDS011;37034;47.886;-3.904;2024-01-30T13:50:48;7.67;;;1.80;;
51006;SDS011;37034;47.886;-3.904;2024-01-30T13:53:13;5.87;;;1.60;;
51006;SDS011;37034;47.886;-3.904;2024-01-30T13:55:39;9.23;;;2.27;;
51006;SDS011;37034;47.886;-3.904;2024-01-30T13:58:05;9.38;;;1.35;;
51006;SDS011;37034;47.886;-3.904;2024-01-30T14:02:58;7.68;;;2.97;;
51006;SDS011;37034;47.886;-3.904;2024-01-30T14:05:24;12.32;;;3.90;;
51006;SDS011;37034;47.886;-3.904;2024-01-30T14:07:51;8.40;;;1.70;;
51006;SDS011;37034;47.886;-3.904;2024-01-30T14:10:17;7.25;;;1.33;;
51006;SDS011;37034;47.886;-3.904;2024-01-30T14:12:43;7.53;;;2.80;;
51006;SDS011;37034;47.886;-3.904;2024-01-30T14:15:09;9.38;;;2.65;;
51006;SDS011;37034;47.886;-3.904;2024-01-30T14:17:36;6.05;;;1.25;;
51006;SDS011;37034;47.886;-3.904;2024-01-30T14:20:02;9.48;;;2.13;;
51006;SDS011;37034;47.886;-3.904;2024-01-30T14:22:32;13.25;;;4.40;;
51006;SDS011;37034;47.886;-3.904;2024-01-30T14:24:58;9.40;;;3.17;;
51006;SDS011;37034;47.886;-3.904;2024-01-30T14:27:24;9.80;;;2.50;;
51006;SDS011;37034;47.886;-3.904;2024-01-30T14:29:50;12.60;;;4.03;;
51006;SDS011;37034;47.886;-3.904;2024-01-30T14:32:15;10.37;;;3.40;;
51006;SDS011;37034;47.886;-3.904;2024-01-30T14:34:41;10.23;;;2.60;;
51006;SDS011;37034;47.886;-3.904;2024-01-30T14:37:07;9.70;;;3.63;;
51006;SDS011;37034;47.886;-3.904;2024-01-30T14:39:32;13.27;;;1.30;;
51006;SDS011;37034;47.886;-3.904;2024-01-30T14:41:58;15.80;;;4.65;;
51006;SDS011;37034;47.886;-3.904;2024-01-30T14:44:24;13.13;;;2.70;;